Terminal Aerodrome Forecast
Issued by NWS

Current Version | Previous Version | Text Only | Print | Product List | Glossary On
Versions: 1 2 3 4 5 6 7 8 9 10 11 12
342 FTUS41 KBTV 252334 TAFMPV TAF KMPV 252334Z 2600/2624 VRB04KT P6SM -RA OVC010 FM260400 VRB04KT 4SM -RA BR OVC010 FM261200 VRB03KT 4SM BR VCSH OVC015 FM261600 14005KT P6SM OVC015 FM261800 14007KT P6SM BKN020=

USA.gov is the U.S. government's official web portal to all federal, state and local government web resources and services.